Time;durP1;ratioP1;P1;durP2;ratioP2;P2;SDS_P1;SDS_P2;PMS_P1;PMS_P2;Temp;Humidity;BMP_temperature;BMP_pressure;BME280_temperature;BME280_humidity;BME280_pressure;Samples;Min_cycle;Max_cycle;Signal;HPM_P1;HPM_P2
2022/12/08 00:01:27;;;;;;;23.38;8.70;;;;;;;-0.83;100.00;95001.13;5028310;28;20068;-70
2022/12/08 00:03:53;;;;;;;20.73;9.05;;;;;;;-0.80;100.00;94995.56;5027037;28;20112;-70
2022/12/08 00:09:24;;;;;;;16.90;7.90;;;;;;;-0.80;100.00;94995.56;5016709;28;20042;-69
2022/12/08 00:11:55;;;;;;;19.10;8.82;;;;;;;-0.84;100.00;94991.81;5014974;28;20053;-70
2022/12/08 00:14:35;;;;;;;20.95;8.68;;;;;;;-0.85;100.00;94998.75;5030435;28;20050;-70
2022/12/08 00:17:02;;;;;;;22.55;9.82;;;;;;;-0.87;100.00;94991.22;5024900;28;20099;-71
2022/12/08 00:19:28;;;;;;;23.00;9.45;;;;;;;-0.90;100.00;95001.97;5043729;28;20041;-71
2022/12/08 00:21:57;;;;;;;23.00;9.23;;;;;;;-0.93;100.00;95002.41;5028756;28;20046;-71
2022/12/08 00:24:28;;;;;;;23.13;9.75;;;;;;;-0.93;100.00;94997.25;5019788;28;20041;-71
2022/12/08 00:26:54;;;;;;;26.88;9.73;;;;;;;-0.88;100.00;94989.66;5021791;28;20372;-68
2022/12/08 00:29:19;;;;;;;23.08;9.73;;;;;;;-0.89;100.00;94982.91;5025785;28;20045;-69
2022/12/08 00:31:45;;;;;;;21.52;9.32;;;;;;;-0.85;100.00;94982.47;5025233;28;20056;-68
2022/12/08 00:34:12;;;;;;;19.70;8.13;;;;;;;-0.84;100.00;94984.84;5027637;28;20052;-69
2022/12/08 00:36:37;;;;;;;22.13;9.45;;;;;;;-0.83;100.00;94981.28;5025986;28;20069;-69
2022/12/08 00:39:03;;;;;;;25.02;9.65;;;;;;;-0.82;100.00;94982.06;5029882;28;20041;-70
2022/12/08 00:44:17;;;;;;;22.23;9.48;;;;;;;-0.77;100.00;94972.69;5018010;28;20038;-70
2022/12/08 00:46:44;;;;;;;18.70;8.65;;;;;;;-0.74;100.00;94968.88;5028104;28;20099;-71
2022/12/08 00:49:10;;;;;;;25.77;9.80;;;;;;;-0.76;100.00;94971.69;5024424;28;20046;-70
2022/12/08 00:51:36;;;;;;;25.45;10.30;;;;;;;-0.77;100.00;94964.16;5027729;28;20042;-70
2022/12/08 00:54:02;;;;;;;25.80;10.32;;;;;;;-0.78;100.00;94967.72;5029011;28;20037;-70
2022/12/08 00:56:27;;;;;;;20.27;9.38;;;;;;;-0.78;100.00;94973.66;5021866;28;20045;-70
2022/12/08 00:58:53;;;;;;;29.15;11.52;;;;;;;-0.81;100.00;94962.97;5017641;28;20103;-70
2022/12/08 01:01:19;;;;;;;24.30;10.23;;;;;;;-0.87;100.00;94970.56;5029138;28;20049;-71
2022/12/08 01:03:44;;;;;;;25.58;10.18;;;;;;;-0.88;100.00;94970.78;5029055;28;20557;-70
2022/12/08 01:06:10;;;;;;;27.35;11.68;;;;;;;-0.89;100.00;94972.56;5021796;28;20049;-70
2022/12/08 01:08:37;;;;;;;25.27;10.50;;;;;;;-0.87;100.00;94975.72;5014189;28;20667;-71
2022/12/08 01:11:04;;;;;;;23.58;10.13;;;;;;;-0.85;100.00;94977.31;5025137;28;20048;-70
2022/12/08 01:13:29;;;;;;;20.50;9.27;;;;;;;-0.84;100.00;94968.56;5020085;28;20049;-71
2022/12/08 01:15:55;;;;;;;24.83;10.30;;;;;;;-0.87;100.00;94965.38;5024412;28;20034;-71
2022/12/08 01:18:20;;;;;;;23.75;9.60;;;;;;;-0.90;100.00;94970.97;5021488;28;20407;-70
2022/12/08 01:20:46;;;;;;;24.38;9.88;;;;;;;-0.85;100.00;94966.97;5028936;28;20088;-71
2022/12/08 01:23:11;;;;;;;21.77;9.60;;;;;;;-0.80;100.00;94969.75;5024206;28;20042;-71
2022/12/08 01:25:37;;;;;;;25.40;10.35;;;;;;;-0.82;100.00;94967.38;5027565;28;20498;-71
2022/12/08 01:28:02;;;;;;;21.75;10.05;;;;;;;-0.84;100.00;94968.56;5029304;28;20087;-72
2022/12/08 01:30:28;;;;;;;25.48;11.35;;;;;;;-0.93;100.00;94966.25;5028048;28;20045;-70
2022/12/08 01:32:53;;;;;;;24.90;10.52;;;;;;;-0.91;100.00;94969.38;5021371;28;20044;-70
2022/12/08 01:35:19;;;;;;;25.35;10.45;;;;;;;-0.87;100.00;94962.81;5026949;28;20518;-70
2022/12/08 01:37:44;;;;;;;23.50;10.15;;;;;;;-0.78;100.00;94957.38;5018672;28;20050;-70
2022/12/08 01:40:10;;;;;;;24.20;10.70;;;;;;;-0.79;100.00;94960.97;5022248;28;20266;-71
2022/12/08 01:42:37;;;;;;;22.73;10.20;;;;;;;-0.88;100.00;94958.66;5024838;28;20427;-69
2022/12/08 01:45:05;;;;;;;22.33;10.07;;;;;;;-0.92;100.00;94952.34;5021394;28;20042;-69
2022/12/08 01:47:41;;;;;;;31.77;11.55;;;;;;;-0.89;100.00;94946.75;5025107;28;20113;-70
2022/12/08 01:50:11;;;;;;;21.30;8.70;;;;;;;-0.87;100.00;94944.72;5029163;28;20045;-70
2022/12/08 01:52:41;;;;;;;21.83;9.93;;;;;;;-0.87;100.00;94936.19;5019353;28;20053;-70
2022/12/08 01:55:14;;;;;;;21.25;9.35;;;;;;;-0.96;100.00;94940.84;5016724;28;20045;-69
2022/12/08 01:58:04;;;;;;;22.92;10.57;;;;;;;-1.01;100.00;94943.25;5014711;28;20037;-69
2022/12/08 02:00:29;;;;;;;23.45;10.52;;;;;;;-1.08;100.00;94932.97;5020092;28;20049;-70
2022/12/08 02:02:59;;;;;;;28.05;11.38;;;;;;;-1.05;100.00;94937.72;5023117;28;20060;-69
2022/12/08 02:05:29;;;;;;;23.00;10.25;;;;;;;-1.03;100.00;94934.13;5023016;28;20046;-70
2022/12/08 02:07:56;;;;;;;22.80;10.77;;;;;;;-1.00;100.00;94939.66;5013804;28;20508;-70
2022/12/08 02:10:26;;;;;;;23.98;10.00;;;;;;;-1.04;100.00;94933.34;5029375;28;20127;-70
2022/12/08 02:12:55;;;;;;;22.58;8.55;;;;;;;-1.02;100.00;94928.78;5026016;28;20072;-70
2022/12/08 02:15:46;;;;;;;25.63;11.55;;;;;;;-1.10;100.00;94923.88;5024092;28;20074;-70
2022/12/08 02:18:23;;;;;;;23.92;9.63;;;;;;;-1.17;100.00;94917.97;5013052;28;20069;-70
2022/12/08 02:21:12;;;;;;;25.13;11.13;;;;;;;-1.20;100.00;94918.38;5021796;28;20107;-70
2022/12/08 02:23:58;;;;;;;25.60;10.63;;;;;;;-1.30;100.00;94919.63;5020868;28;20041;-70
2022/12/08 02:27:02;;;;;;;26.27;10.77;;;;;;;-1.34;100.00;94918.44;5031545;28;20478;-70
2022/12/08 02:29:54;;;;;;;25.63;10.40;;;;;;;-1.29;100.00;94916.03;5028051;28;20064;-70
2022/12/08 02:32:47;;;;;;;30.15;10.18;;;;;;;-1.31;100.00;94912.88;5023868;28;20089;-70
2022/12/08 02:35:32;;;;;;;21.73;9.82;;;;;;;-1.28;100.00;94912.47;5022486;28;20042;-71
2022/12/08 02:38:19;;;;;;;23.02;9.77;;;;;;;-1.33;100.00;94901.19;5026016;28;20046;-70
2022/12/08 02:41:20;;;;;;;21.20;8.75;;;;;;;-1.33;100.00;94904.56;5031227;28;20483;-70
2022/12/08 02:43:55;;;;;;;24.15;8.88;;;;;;;-1.38;100.00;94901.00;5021887;28;20507;-70
2022/12/08 02:46:22;;;;;;;;;;;;;;;-1.32;100.00;94898.41;5020904;28;20061;-70
2022/12/08 02:48:50;;;;;;;25.98;9.38;;;;;;;-1.36;100.00;94904.97;5023362;28;19971;-71
2022/12/08 02:51:16;;;;;;;30.05;10.25;;;;;;;-1.43;100.00;94899.06;5024477;28;20045;-71
2022/12/08 02:53:43;;;;;;;25.58;9.95;;;;;;;-1.38;100.00;94886.31;5029703;28;20510;-71
2022/12/08 02:56:31;;;;;;;21.42;8.68;;;;;;;-1.34;100.00;94891.84;5025125;28;20046;-72
2022/12/08 02:59:32;;;;;;;26.25;9.68;;;;;;;-1.30;100.00;94893.81;5016721;28;20046;-71
2022/12/08 03:02:08;;;;;;;21.52;9.63;;;;;;;-1.36;100.00;94884.31;5022626;28;20404;-71
2022/12/08 03:05:02;;;;;;;20.90;9.55;;;;;;;-1.47;100.00;94888.34;5030528;28;20042;-71
2022/12/08 03:07:39;;;;;;;24.20;9.15;;;;;;;-1.46;100.00;94881.41;5015330;28;20160;-71
2022/12/08 03:10:11;;;;;;;27.60;10.23;;;;;;;-1.47;100.00;94882.41;5030269;28;20499;-71
2022/12/08 03:12:48;;;;;;;23.02;9.57;;;;;;;-1.47;100.00;94872.09;5023883;28;20104;-71
2022/12/08 03:15:17;;;;;;;21.77;9.57;;;;;;;-1.57;100.00;94878.50;5024774;28;20068;-71
2022/12/08 03:17:51;;;;;;;23.20;9.27;;;;;;;-1.57;100.00;94883.69;5018362;28;20069;-71
2022/12/08 03:20:21;;;;;;;25.27;10.10;;;;;;;-1.49;100.00;94876.69;5025147;28;20096;-71
2022/12/08 03:22:49;;;;;;;22.77;9.63;;;;;;;-1.50;100.00;94880.25;5033446;28;20056;-71
2022/12/08 03:25:20;;;;;;;24.92;9.40;;;;;;;-1.48;100.00;94873.06;5034629;28;20076;-71
2022/12/08 03:27:45;;;;;;;25.08;9.15;;;;;;;-1.51;100.00;94856.22;5027653;28;20044;-71
2022/12/08 03:30:11;;;;;;;23.42;9.63;;;;;;;-1.54;100.00;94871.34;5021813;28;20073;-71
2022/12/08 03:32:53;;;;;;;24.75;10.40;;;;;;;-1.47;100.00;94872.09;5031739;28;20025;-70
2022/12/08 03:35:23;;;;;;;22.45;9.95;;;;;;;-1.50;100.00;94867.34;5057233;28;20160;-70
2022/12/08 03:37:49;;;;;;;24.92;9.85;;;;;;;-1.53;100.00;94862.63;5051136;28;20056;-69
2022/12/08 03:40:18;;;;;;;26.13;10.18;;;;;;;-1.54;100.00;94871.34;5050569;28;20038;-68
2022/12/08 03:42:43;;;;;;;24.05;10.05;;;;;;;-1.58;100.00;94871.75;5050931;28;20037;-69
2022/12/08 03:45:09;;;;;;;22.50;9.88;;;;;;;-1.52;100.00;94853.84;5042828;28;20422;-70
2022/12/08 03:47:35;;;;;;;23.42;10.27;;;;;;;-1.44;100.00;94862.16;5046731;28;20113;-69
2022/12/08 03:50:01;;;;;;;22.17;9.68;;;;;;;-1.52;100.00;94848.69;5044461;28;20037;-69
2022/12/08 03:52:26;;;;;;;24.73;10.60;;;;;;;-1.57;100.00;94860.44;5046951;28;20112;-69
2022/12/08 03:54:52;;;;;;;22.33;10.02;;;;;;;-1.54;100.00;94861.03;5045775;28;20049;-69
2022/12/08 03:57:17;;;;;;;23.40;9.55;;;;;;;-1.55;100.00;94859.44;5038959;28;20208;-72
2022/12/08 03:59:43;;;;;;;24.95;9.45;;;;;;;-1.60;100.00;94847.94;5027530;28;20130;-70
2022/12/08 04:02:08;;;;;;;27.33;9.68;;;;;;;-1.53;100.00;94853.06;5016250;28;20041;-71
2022/12/08 04:04:34;;;;;;;25.63;10.48;;;;;;;-1.54;100.00;94853.28;5030094;28;20050;-71
2022/12/08 04:06:59;;;;;;;25.60;10.40;;;;;;;-1.61;100.00;94851.53;5028696;28;20038;-71
2022/12/08 04:09:25;;;;;;;22.17;9.40;;;;;;;-1.55;100.00;94855.09;5021611;28;20045;-71
2022/12/08 04:11:50;;;;;;;26.38;10.45;;;;;;;-1.63;100.00;94848.38;5011479;28;20046;-71
2022/12/08 04:14:17;;;;;;;22.17;9.73;;;;;;;-1.55;100.00;94854.28;5018214;28;20048;-70
2022/12/08 04:16:42;;;;;;;22.42;9.15;;;;;;;-1.58;100.00;94845.97;5015833;28;20033;-70
2022/12/08 04:19:08;;;;;;;25.13;10.45;;;;;;;-1.58;100.00;94845.97;5024233;28;20064;-70
2022/12/08 04:21:33;;;;;;;25.70;10.40;;;;;;;-1.58;100.00;94851.13;5030936;28;20052;-71
2022/12/08 04:23:59;;;;;;;23.88;9.10;;;;;;;-1.54;100.00;94850.69;5024466;28;20435;-70
2022/12/08 04:26:24;;;;;;;21.65;8.98;;;;;;;-1.67;100.00;94843.84;5023872;28;20415;-70
2022/12/08 04:28:50;;;;;;;25.08;9.05;;;;;;;-1.71;100.00;94846.06;5023659;28;20047;-71
2022/12/08 04:31:15;;;;;;;26.73;9.60;;;;;;;-1.73;100.00;94842.88;5014158;28;20053;-71
2022/12/08 04:33:41;;;;;;;19.38;8.82;;;;;;;-1.68;100.00;94855.97;5024147;28;20450;-71
2022/12/08 04:36:07;;;;;;;25.42;10.18;;;;;;;-1.70;100.00;94850.19;5023917;28;20404;-71
2022/12/08 04:38:33;;;;;;;24.75;10.48;;;;;;;-1.72;100.00;94836.72;5025948;28;20045;-71
2022/12/08 04:40:59;;;;;;;25.10;9.80;;;;;;;-1.72;100.00;94834.16;5029372;28;20046;-70
2022/12/08 04:43:25;;;;;;;24.50;9.75;;;;;;;-1.77;100.00;94831.41;5021625;28;20061;-70
2022/12/08 04:45:50;;;;;;;22.65;9.32;;;;;;;-1.74;100.00;94830.97;5024715;28;20042;-70
2022/12/08 04:48:16;;;;;;;25.27;9.85;;;;;;;-1.80;100.00;94826.66;5025478;28;20049;-70
2022/12/08 04:50:43;;;;;;;27.67;10.07;;;;;;;-1.76;100.00;94828.59;5019433;28;20539;-70
2022/12/08 04:53:10;;;;;;;23.40;9.40;;;;;;;-1.79;100.00;94833.41;5024615;28;20507;-71
2022/12/08 04:55:42;;;;;;;22.60;9.13;;;;;;;-1.78;100.00;94828.03;5012361;28;20092;-71
2022/12/08 04:58:12;;;;;;;20.75;9.20;;;;;;;-1.76;100.00;94827.81;5020358;28;20455;-71
2022/12/08 05:00:38;;;;;;;20.50;8.75;;;;;;;-1.80;100.00;94837.75;5026772;28;20133;-71
2022/12/08 05:03:04;;;;;;;26.02;10.10;;;;;;;-1.79;100.00;94833.41;5021565;28;20116;-71
2022/12/08 05:05:29;;;;;;;24.13;9.57;;;;;;;-1.83;100.00;94833.00;5020667;28;20045;-71
2022/12/08 05:07:55;;;;;;;25.77;8.60;;;;;;;-1.80;100.00;94836.97;5012420;28;20128;-71
2022/12/08 05:10:20;;;;;;;21.80;9.82;;;;;;;-1.84;100.00;94846.13;5029934;28;20434;-71
2022/12/08 05:12:46;;;;;;;19.00;8.52;;;;;;;-1.78;100.00;94840.94;5015509;28;20041;-71
2022/12/08 05:15:11;;;;;;;23.58;9.35;;;;;;;-1.83;100.00;94838.16;5013342;28;20041;-71
2022/12/08 05:17:37;;;;;;;22.60;9.93;;;;;;;-1.78;100.00;94829.81;5023297;28;20034;-71
2022/12/08 05:20:03;;;;;;;23.40;9.50;;;;;;;-1.84;100.00;94833.22;5028157;28;20061;-71
2022/12/08 05:22:29;;;;;;;25.38;9.50;;;;;;;-1.80;100.00;94831.81;5011699;28;20049;-70
2022/12/08 05:24:55;;;;;;;25.75;10.18;;;;;;;-1.77;100.00;94826.22;5018254;28;20037;-71
2022/12/08 05:27:20;;;;;;;22.33;9.60;;;;;;;-1.78;100.00;94824.66;5020698;28;20065;-70
2022/12/08 05:29:47;;;;;;;25.55;9.98;;;;;;;-1.76;100.00;94822.66;5023378;28;20041;-70
2022/12/08 05:32:12;;;;;;;24.63;10.75;;;;;;;-1.79;100.00;94823.09;5023269;28;20046;-70
2022/12/08 05:34:38;;;;;;;25.48;10.48;;;;;;;-1.82;100.00;94828.66;5014076;28;20046;-70
2022/12/08 05:37:03;;;;;;;28.30;10.85;;;;;;;-1.82;100.00;94808.03;5020510;28;20116;-69
2022/12/08 05:39:30;;;;;;;25.20;9.95;;;;;;;-1.75;100.00;94813.94;5029446;28;20388;-71
2022/12/08 05:41:55;;;;;;;24.55;9.73;;;;;;;-1.73;100.00;94817.09;5020132;28;20049;-69
2022/12/08 05:44:21;;;;;;;24.38;10.68;;;;;;;-1.75;100.00;94813.94;5014508;28;20049;-70
2022/12/08 05:46:46;;;;;;;25.17;10.60;;;;;;;-1.77;100.00;94810.75;5030629;28;20058;-71
2022/12/08 05:49:12;;;;;;;25.25;10.35;;;;;;;-1.78;100.00;94806.59;5022860;28;20042;-70
2022/12/08 05:51:37;;;;;;;29.05;9.90;;;;;;;-1.75;100.00;94808.78;5024897;28;20495;-70
2022/12/08 05:54:03;;;;;;;22.63;9.88;;;;;;;-1.72;100.00;94808.34;5031381;28;20041;-71
2022/12/08 05:56:29;;;;;;;26.92;10.35;;;;;;;-1.76;100.00;94802.03;5024885;28;20063;-69
2022/12/08 05:58:54;;;;;;;24.88;10.13;;;;;;;-1.71;100.00;94806.56;5030949;28;20033;-69
2022/12/08 06:01:21;;;;;;;22.33;9.70;;;;;;;-1.70;100.00;94806.34;5031913;28;20072;-70
2022/12/08 06:03:47;;;;;;;27.20;10.93;;;;;;;-1.73;100.00;94809.34;5020405;28;20061;-69
2022/12/08 06:06:13;;;;;;;29.15;10.13;;;;;;;-1.67;100.00;94805.91;5023432;28;20388;-69
2022/12/08 06:08:38;;;;;;;26.75;10.45;;;;;;;-1.66;100.00;94802.34;5032532;28;20046;-70
2022/12/08 06:11:04;;;;;;;28.85;11.73;;;;;;;-1.66;100.00;94802.34;5029823;28;20056;-69
2022/12/08 06:13:29;;;;;;;24.13;10.82;;;;;;;-1.68;100.00;94809.53;5021996;28;20115;-69
2022/12/08 06:15:55;;;;;;;26.30;10.35;;;;;;;-1.61;100.00;94809.44;5022672;28;20046;-69
2022/12/08 06:18:20;;;;;;;25.88;10.60;;;;;;;-1.71;100.00;94804.78;5020600;28;20045;-71
2022/12/08 06:20:46;;;;;;;26.30;11.50;;;;;;;-1.70;100.00;94811.50;5031260;28;20094;-70
2022/12/08 06:23:12;;;;;;;26.00;11.07;;;;;;;-1.69;100.00;94807.16;5018057;28;20061;-70
2022/12/08 06:25:37;;;;;;;27.58;10.82;;;;;;;-1.73;100.00;94806.75;5022734;28;20038;-70
2022/12/08 06:28:05;;;;;;;31.98;10.77;;;;;;;-1.68;100.00;94803.56;5026883;28;20038;-70
2022/12/08 06:30:30;;;;;;;26.48;10.20;;;;;;;-1.66;100.00;94802.34;5023950;28;20045;-70
2022/12/08 06:32:56;;;;;;;24.25;10.43;;;;;;;-1.58;100.00;94809.84;5019766;28;20072;-70
2022/12/08 06:35:21;;;;;;;35.47;11.95;;;;;;;-1.52;100.00;94812.56;5019065;28;20042;-70
2022/12/08 06:37:47;;;;;;;32.00;11.07;;;;;;;-1.49;100.00;94807.00;5028521;28;20045;-70
2022/12/08 06:40:13;;;;;;;29.88;11.25;;;;;;;-1.42;100.00;94807.75;5016892;28;20492;-70
2022/12/08 06:42:45;;;;;;;26.92;11.13;;;;;;;-1.54;100.00;94804.25;5020307;28;20051;-70
2022/12/08 06:45:13;;;;;;;28.05;10.50;;;;;;;-1.63;100.00;94801.91;5026479;28;20048;-70
2022/12/08 06:47:39;;;;;;;26.90;10.18;;;;;;;-1.62;100.00;94803.50;5027468;28;20072;-70
2022/12/08 06:50:06;;;;;;;24.98;10.35;;;;;;;-1.65;100.00;94803.94;5027983;28;20124;-70
2022/12/08 06:52:31;;;;;;;26.48;10.35;;;;;;;-1.67;100.00;94794.81;5022028;28;20064;-70
2022/12/08 06:54:57;;;;;;;27.90;11.10;;;;;;;-1.66;100.00;94797.19;5023225;28;20551;-70
2022/12/08 06:57:23;;;;;;;24.23;9.85;;;;;;;-1.71;100.00;94789.31;5025883;28;20042;-70
2022/12/08 06:59:49;;;;;;;31.45;10.52;;;;;;;-1.78;100.00;94793.69;5026919;28;20423;-70
2022/12/08 07:02:14;;;;;;;29.70;11.52;;;;;;;-1.80;100.00;94806.03;5029731;28;20045;-72
2022/12/08 07:04:40;;;;;;;29.42;10.82;;;;;;;-1.74;100.00;94800.00;5020476;28;20041;-70
2022/12/08 07:07:05;;;;;;;34.22;10.70;;;;;;;-1.78;100.00;94798.84;5018176;28;20042;-71
2022/12/08 07:09:31;;;;;;;28.77;11.10;;;;;;;-1.76;100.00;94804.59;5029665;28;20045;-71
2022/12/08 07:11:56;;;;;;;28.73;11.52;;;;;;;-1.80;100.00;94806.81;5030063;28;20065;-71
2022/12/08 07:14:23;;;;;;;27.45;10.35;;;;;;;-1.75;100.00;94808.78;5023355;28;20038;-70
2022/12/08 07:16:50;;;;;;;29.52;10.88;;;;;;;-1.73;100.00;94801.59;5029942;28;20048;-71
2022/12/08 07:19:16;;;;;;;33.60;12.10;;;;;;;-1.66;100.00;94812.66;5012848;28;20060;-71
2022/12/08 07:21:42;;;;;;;27.15;11.05;;;;;;;-1.63;100.00;94812.25;5030473;28;20037;-70
2022/12/08 07:24:07;;;;;;;28.10;11.43;;;;;;;-1.65;100.00;94814.25;5029849;28;20091;-71
2022/12/08 07:26:33;;;;;;;28.70;11.70;;;;;;;-1.63;100.00;94812.25;5020969;28;20341;-70
2022/12/08 07:28:59;;;;;;;27.75;11.48;;;;;;;-1.61;100.00;94815.41;5025903;28;20150;-70
2022/12/08 07:31:26;;;;;;;26.02;11.32;;;;;;;-1.57;100.00;94806.25;5022221;28;20459;-70
2022/12/08 07:33:53;;;;;;;28.83;11.90;;;;;;;-1.50;100.00;94820.91;5029228;28;20092;-70
2022/12/08 07:36:18;;;;;;;28.67;10.80;;;;;;;-1.41;100.00;94824.78;5015366;28;20042;-70
2022/12/08 07:38:44;;;;;;;28.63;11.05;;;;;;;-1.38;100.00;94813.25;5015444;28;20122;-71
2022/12/08 07:41:14;;;;;;;29.00;11.05;;;;;;;-1.33;100.00;94814.19;5015960;28;20484;-70
2022/12/08 07:43:41;;;;;;;31.10;11.75;;;;;;;-1.24;100.00;94817.31;5016312;28;20046;-70
2022/12/08 07:46:07;;;;;;;32.78;13.40;;;;;;;-1.29;100.00;94807.63;5024199;28;20132;-70
2022/12/08 07:48:32;;;;;;;27.33;11.45;;;;;;;-1.11;100.00;94814.59;5020069;28;20544;-69
2022/12/08 07:51:02;;;;;;;36.63;13.98;;;;;;;-1.01;100.00;94803.00;5023881;28;20052;-69
2022/12/08 07:53:28;;;;;;;34.10;13.38;;;;;;;-0.80;100.00;94817.31;5027319;28;20038;-69
2022/12/08 07:55:54;;;;;;;35.42;12.70;;;;;;;-0.65;100.00;94817.72;5022882;28;20037;-69
2022/12/08 07:58:20;;;;;;;28.30;11.48;;;;;;;-0.50;100.00;94819.16;5017485;28;20650;-69
2022/12/08 08:00:45;;;;;;;29.13;10.93;;;;;;;-0.40;100.00;94814.28;5026170;28;20037;-71
2022/12/08 08:03:11;;;;;;;25.40;11.32;;;;;;;-0.25;100.00;94817.25;5025459;28;20112;-69
2022/12/08 08:05:36;;;;;;;28.48;11.10;;;;;;;-0.27;100.00;94808.94;5017167;28;20049;-68
2022/12/08 08:08:02;;;;;;;21.05;9.15;;;;;;;-0.03;100.00;94814.19;5028279;28;20045;-68
2022/12/08 08:10:28;;;;;;;24.98;9.35;;;;;;;-0.16;100.00;94809.19;5024181;28;20060;-68
2022/12/08 08:12:56;;;;;;;27.77;10.18;;;;;;;-0.20;100.00;94807.06;5017420;28;20054;-67
2022/12/08 08:15:22;;;;;;;21.95;10.15;;;;;;;-0.05;100.00;94811.06;5019361;28;20042;-68
2022/12/08 08:17:51;;;;;;;27.13;9.32;;;;;;;0.02;100.00;94806.56;5015006;28;20038;-69
2022/12/08 08:20:17;;;;;;;23.67;10.00;;;;;;;0.06;100.00;94818.06;5027485;28;20041;-69
2022/12/08 08:22:47;;;;;;;19.45;8.02;;;;;;;0.20;100.00;94823.03;5023624;28;20038;-69
2022/12/08 08:25:13;;;;;;;22.98;9.32;;;;;;;0.25;100.00;94818.78;5023521;28;20037;-69
2022/12/08 08:27:39;;;;;;;22.63;9.65;;;;;;;0.28;100.00;94809.81;5015365;28;20045;-68
2022/12/08 08:30:10;;;;;;;24.90;9.80;;;;;;;0.41;100.00;94812.19;5026273;28;20107;-69
2022/12/08 08:32:36;;;;;;;24.95;9.55;;;;;;;0.59;100.00;94810.53;5019946;28;20046;-69
2022/12/08 08:35:02;;;;;;;22.05;8.32;;;;;;;0.63;100.00;94814.25;5025177;28;20034;-69
2022/12/08 08:37:28;;;;;;;20.33;8.65;;;;;;;0.58;100.00;94812.31;5021885;28;20411;-69
2022/12/08 08:39:53;;;;;;;21.02;9.13;;;;;;;0.50;100.00;94810.88;5018170;28;20041;-69
2022/12/08 08:42:19;;;;;;;17.08;8.50;;;;;;;0.64;100.00;94810.66;5021584;28;20200;-70
2022/12/08 08:44:45;;;;;;;20.92;8.07;;;;;;;0.74;100.00;94803.09;5025418;28;20071;-69
2022/12/08 08:47:11;;;;;;;18.58;8.25;;;;;;;0.73;100.00;94811.88;5018529;28;20609;-69
2022/12/08 08:49:36;;;;;;;19.80;8.10;;;;;;;0.57;100.00;94812.56;5022253;28;20045;-69
2022/12/08 08:52:03;;;;;;;21.85;9.07;;;;;;;0.43;100.00;94815.34;5028175;28;20042;-69
2022/12/08 08:54:29;;;;;;;20.13;8.68;;;;;;;0.59;100.00;94819.09;5027410;28;20038;-69
2022/12/08 08:56:56;;;;;;;21.80;9.07;;;;;;;0.70;100.00;94812.34;5021536;28;20041;-71
2022/12/08 08:59:22;;;;;;;20.80;8.98;;;;;;;0.91;100.00;94807.63;5026913;28;20124;-69
2022/12/08 09:01:48;;;;;;;23.73;9.85;;;;;;;0.89;100.00;94804.47;5022242;28;20038;-69
2022/12/08 09:04:13;;;;;;;23.20;8.85;;;;;;;1.16;100.00;94810.75;5021079;28;20120;-68
2022/12/08 09:06:41;;;;;;;19.25;8.60;;;;;;;1.17;100.00;94804.56;5026529;28;20075;-69
2022/12/08 09:09:06;;;;;;;19.42;9.18;;;;;;;1.17;100.00;94812.34;5037250;28;20445;-69
2022/12/08 09:11:32;;;;;;;22.50;9.65;;;;;;;1.44;100.00;94816.22;5023184;28;20041;-70
2022/12/08 09:13:58;;;;;;;19.27;8.48;;;;;;;1.35;100.00;94808.03;5023978;28;20080;-70
2022/12/08 09:16:23;;;;;;;22.15;9.15;;;;;;;1.55;100.00;94812.84;5024313;28;20128;-69
2022/12/08 09:18:49;;;;;;;27.65;9.65;;;;;;;1.51;100.00;94817.69;5024543;28;20038;-69
2022/12/08 09:21:24;;;;;;;22.70;9.55;;;;;;;1.73;100.00;94819.69;5021507;28;20041;-69
2022/12/08 09:23:52;;;;;;;23.50;10.13;;;;;;;1.87;100.00;94800.22;5013700;28;20087;-69
2022/12/08 09:26:21;;;;;;;22.45;9.02;;;;;;;1.75;100.00;94796.88;5022604;28;20084;-69
2022/12/08 09:28:50;;;;;;;23.55;9.77;;;;;;;1.80;100.00;94789.19;5024465;28;20061;-69
2022/12/08 09:31:17;;;;;;;24.55;9.50;;;;;;;1.86;100.00;94788.25;5020895;28;20041;-69
2022/12/08 09:33:42;;;;;;;24.55;10.15;;;;;;;1.88;100.00;94796.63;5023756;28;20041;-69
2022/12/08 09:36:09;;;;;;;24.25;10.35;;;;;;;1.48;100.00;94792.22;5023127;28;20418;-69
2022/12/08 09:38:35;;;;;;;24.58;10.27;;;;;;;1.62;100.00;94786.78;5027958;28;20148;-69
2022/12/08 09:41:06;;;;;;;19.52;9.15;;;;;;;1.79;100.00;94787.63;5023136;28;20411;-69
2022/12/08 09:43:50;;;;;;;24.60;10.63;;;;;;;1.90;100.00;94786.00;5014436;28;20065;-69
2022/12/08 09:46:18;;;;;;;23.23;9.80;;;;;;;2.12;100.00;94773.16;5023453;28;20045;-69
2022/12/08 09:48:54;;;;;;;24.58;9.57;;;;;;;2.08;100.00;94777.22;5015542;28;20046;-69
2022/12/08 09:51:25;;;;;;;22.92;9.20;;;;;;;2.46;100.00;94770.59;5025727;28;20042;-69
2022/12/08 09:53:55;;;;;;;21.85;9.60;;;;;;;2.41;100.00;94767.91;5026141;28;20068;-69
2022/12/08 09:56:23;;;;;;;21.50;9.23;;;;;;;2.29;100.00;94767.19;5019658;28;20042;-69
2022/12/08 09:59:04;;;;;;;24.27;9.93;;;;;;;2.46;100.00;94760.19;5016661;28;20558;-70
2022/12/08 10:01:40;;;;;;;20.40;9.63;;;;;;;2.48;100.00;94763.34;5018929;28;20038;-69
2022/12/08 10:04:19;;;;;;;23.60;9.48;;;;;;;2.64;100.00;94750.59;5023503;28;20375;-69
2022/12/08 10:07:03;;;;;;;22.77;10.25;;;;;;;2.14;100.00;94745.16;5025269;28;20111;-71
2022/12/08 10:09:40;;;;;;;23.55;9.93;;;;;;;1.99;100.00;94732.69;5020398;28;20155;-69
2022/12/08 10:12:21;;;;;;;22.63;10.02;;;;;;;1.73;100.00;94731.47;5023527;28;20038;-70
2022/12/08 10:15:18;;;;;;;24.85;10.10;;;;;;;2.01;100.00;94737.66;5023325;28;20048;-69
2022/12/08 10:17:52;;;;;;;24.08;10.60;;;;;;;3.90;100.00;94735.97;5018292;28;20049;-69
2022/12/08 10:20:22;;;;;;;;;;;;;;;3.51;100.00;94733.50;5019320;28;20108;-69
2022/12/08 10:22:54;;;;;;;25.02;9.70;;;;;;;2.73;100.00;94725.75;5017160;28;19921;-70
2022/12/08 10:25:55;;;;;;;21.60;9.43;;;;;;;2.22;100.00;94718.03;5029079;28;20112;-69
2022/12/08 10:28:21;;;;;;;26.42;10.82;;;;;;;2.39;100.00;94723.22;4987711;28;20064;-70
2022/12/08 10:30:46;;;;;;;23.27;10.00;;;;;;;3.17;100.00;94718.03;5012527;28;20045;-69
2022/12/08 10:33:18;;;;;;;23.10;10.10;;;;;;;2.76;100.00;94712.31;5016213;28;20041;-69
2022/12/08 10:35:47;;;;;;;21.85;10.07;;;;;;;2.68;100.00;94712.72;5029707;28;20720;-69
2022/12/08 10:38:32;;;;;;;19.65;9.48;;;;;;;2.28;100.00;94703.31;5033287;28;20042;-70
2022/12/08 10:41:06;;;;;;;;;;;;;;;2.12;100.00;94708.25;5027579;28;20033;-71
2022/12/08 10:43:32;;;;;;;26.42;10.65;;;;;;;1.92;100.00;94702.75;5030200;28;20402;-69
2022/12/08 10:46:19;;;;;;;19.90;9.15;;;;;;;2.14;100.00;94698.44;5023424;28;20045;-70
2022/12/08 10:48:52;;;;;;;22.63;9.88;;;;;;;2.17;100.00;94695.38;5024848;28;20042;-69
2022/12/08 10:51:37;;;;;;;22.52;9.95;;;;;;;2.23;100.00;94694.41;5028157;28;20514;-69
2022/12/08 10:54:04;;;;;;;;;;;;;;;2.48;100.00;94690.63;5027507;28;20044;-69
2022/12/08 10:56:32;;;;;;;19.98;8.95;;;;;;;2.29;100.00;94686.72;5028938;28;20067;-68
2022/12/08 10:59:05;;;;;;;17.92;8.65;;;;;;;2.71;100.00;94688.84;5020770;28;20042;-69
2022/12/08 11:01:35;;;;;;;19.20;9.15;;;;;;;2.73;100.00;94691.97;5026475;28;20046;-70
2022/12/08 11:04:02;;;;;;;21.08;9.55;;;;;;;2.67;100.00;94683.38;5034703;28;20042;-68
2022/12/08 11:06:28;;;;;;;21.77;9.43;;;;;;;2.54;100.00;94684.50;5026032;28;20049;-69
2022/12/08 11:08:59;;;;;;;18.95;8.45;;;;;;;2.32;100.00;94681.03;5032249;28;20071;-68
2022/12/08 11:11:37;;;;;;;18.45;8.70;;;;;;;2.64;100.00;94677.84;5028085;28;20046;-68
2022/12/08 11:14:07;;;;;;;19.23;8.75;;;;;;;2.29;100.00;94671.91;5013195;28;20064;-67
2022/12/08 11:16:33;;;;;;;18.38;8.18;;;;;;;2.18;100.00;94665.75;5013280;28;20045;-69
2022/12/08 11:19:05;;;;;;;16.30;7.78;;;;;;;2.32;100.00;94665.47;5012900;28;20042;-68
2022/12/08 11:21:36;;;;;;;18.17;7.90;;;;;;;2.40;100.00;94667.66;5018017;28;20544;-68
2022/12/08 11:24:23;;;;;;;17.05;8.43;;;;;;;2.36;100.00;94666.56;5032456;28;20087;-68
2022/12/08 11:27:03;;;;;;;16.83;7.15;;;;;;;2.41;100.00;94656.22;5014820;28;20049;-69
2022/12/08 11:29:31;;;;;;;17.00;7.78;;;;;;;2.60;100.00;94665.34;5026914;28;20037;-68
2022/12/08 11:32:06;;;;;;;12.13;7.05;;;;;;;2.52;100.00;94663.16;5022702;28;20061;-68